Time;durP1;ratioP1;P1;durP2;ratioP2;P2;SDS_P1;SDS_P2;PMS_P1;PMS_P2;Temp;Humidity;BMP_temperature;BMP_pressure;BME280_temperature;BME280_humidity;BME280_pressure;Samples;Min_cycle;Max_cycle;Signal;HPM_P1;HPM_P2
2021/03/16 00:02:06;;;;;;;10.07;5.50;;;;;;;3.28;100.00;96244.53;5035566;28;20205;-72
2021/03/16 00:04:32;;;;;;;7.77;4.57;;;;;;;3.30;100.00;96248.66;5035326;28;20996;-72
2021/03/16 00:06:58;;;;;;;14.80;5.53;;;;;;;3.26;100.00;96246.44;5035324;28;20335;-72
2021/03/16 00:09:24;;;;;;;13.53;6.00;;;;;;;3.26;100.00;96257.69;5034729;28;20278;-72
2021/03/16 00:11:50;;;;;;;15.77;6.47;;;;;;;3.23;100.00;96251.94;5035294;28;20298;-72
2021/03/16 00:14:16;;;;;;;12.77;5.87;;;;;;;3.24;100.00;96264.81;5036216;28;20306;-72
2021/03/16 00:16:42;;;;;;;10.83;5.83;;;;;;;3.28;100.00;96262.78;5034220;28;20209;-72
2021/03/16 00:19:09;;;;;;;12.90;6.10;;;;;;;3.24;100.00;96264.81;5034947;28;20213;-72
2021/03/16 00:21:35;;;;;;;13.63;5.50;;;;;;;3.23;100.00;96263.19;5034906;28;20614;-72
2021/03/16 00:24:01;;;;;;;12.27;5.83;;;;;;;3.25;100.00;96260.44;5035278;28;20232;-72
2021/03/16 00:26:27;;;;;;;12.77;6.27;;;;;;;3.26;100.00;96262.06;5034364;28;20857;-72
2021/03/16 00:28:53;;;;;;;13.70;6.27;;;;;;;3.27;100.00;96263.72;5034967;28;20316;-72
2021/03/16 00:31:19;;;;;;;11.90;5.87;;;;;;;3.26;100.00;96259.47;5035602;28;20253;-72
2021/03/16 00:33:45;;;;;;;12.23;5.20;;;;;;;3.27;100.00;96263.72;5035102;28;20233;-72
2021/03/16 00:36:12;;;;;;;11.17;5.37;;;;;;;3.29;100.00;96261.81;5035193;28;20213;-72
2021/03/16 00:38:38;;;;;;;12.33;5.57;;;;;;;3.30;100.00;96264.28;5038869;28;20793;-72
2021/03/16 00:41:04;;;;;;;20.03;6.17;;;;;;;3.28;100.00;96268.78;5039056;28;20209;-72
2021/03/16 00:43:30;;;;;;;13.27;5.23;;;;;;;3.31;100.00;96267.69;5039099;28;20290;-72
2021/03/16 00:45:56;;;;;;;15.53;6.47;;;;;;;3.27;100.00;96274.97;5038701;28;20744;-72
2021/03/16 00:48:22;;;;;;;9.20;4.73;;;;;;;3.28;100.00;96270.56;5039048;28;20315;-72
2021/03/16 00:50:47;;;;;;;14.37;5.90;;;;;;;3.27;100.00;96280.19;5038745;28;20286;-72
2021/03/16 00:53:14;;;;;;;14.37;5.80;;;;;;;3.29;100.00;96274.84;5039273;28;20215;-72
2021/03/16 00:55:40;;;;;;;15.70;6.73;;;;;;;3.30;100.00;96268.69;5038018;28;20221;-72
2021/03/16 00:58:06;;;;;;;12.33;5.43;;;;;;;3.29;100.00;96274.84;5038788;28;20452;-72
2021/03/16 01:00:32;;;;;;;13.53;6.30;;;;;;;3.32;100.00;96271.97;5038729;28;20205;-72
2021/03/16 01:02:58;;;;;;;11.30;4.87;;;;;;;3.30;100.00;96273.88;5038668;28;20209;-72
2021/03/16 01:05:24;;;;;;;15.17;3.70;;;;;;;3.32;100.00;96282.38;5038174;28;20240;-72
2021/03/16 01:07:51;;;;;;;10.03;5.23;;;;;;;3.29;100.00;96272.22;5038665;28;20212;-72
2021/03/16 01:10:20;;;;;;;12.43;6.00;;;;;;;3.28;100.00;96288.81;5038643;28;20290;-72
2021/03/16 01:12:46;;;;;;;11.17;5.47;;;;;;;3.28;100.00;96291.41;5038223;28;20288;-72
2021/03/16 01:15:14;;;;;;;18.33;6.27;;;;;;;3.30;100.00;96294.72;5038118;28;20789;-72
2021/03/16 01:17:40;;;;;;;10.83;4.97;;;;;;;3.28;100.00;96299.22;5038365;28;20676;-72
2021/03/16 01:20:10;;;;;;;21.47;6.43;;;;;;;3.24;100.00;96298.66;5038141;28;20224;-72
2021/03/16 01:22:36;;;;;;;9.43;3.53;;;;;;;3.24;100.00;96292.63;5038091;28;20961;-74
2021/03/16 01:25:03;;;;;;;17.00;6.20;;;;;;;3.25;100.00;96299.50;5038977;28;20233;-72
2021/03/16 01:27:29;;;;;;;11.60;5.67;;;;;;;3.17;100.00;96301.91;5038342;28;20577;-72
2021/03/16 01:29:55;;;;;;;12.37;5.07;;;;;;;3.20;100.00;96309.47;5037887;28;20227;-72
2021/03/16 01:32:21;;;;;;;15.93;6.00;;;;;;;3.19;100.00;96306.03;5039253;28;20209;-72
2021/03/16 01:34:47;;;;;;;13.07;3.93;;;;;;;3.21;100.00;96300.72;5037922;28;20221;-72
2021/03/16 01:37:13;;;;;;;13.70;6.30;;;;;;;3.18;100.00;96298.34;5037776;28;20274;-72
2021/03/16 01:39:39;;;;;;;10.13;4.90;;;;;;;3.23;100.00;96296.19;5038480;28;20688;-72
2021/03/16 01:42:06;;;;;;;13.37;5.30;;;;;;;3.21;100.00;96288.50;5038320;28;20205;-72
2021/03/16 01:44:32;;;;;;;13.57;5.90;;;;;;;3.18;100.00;96296.59;5038079;28;20225;-72
2021/03/16 01:46:59;;;;;;;16.07;5.80;;;;;;;3.19;100.00;96298.22;5037781;28;20219;-72
2021/03/16 01:49:25;;;;;;;13.03;4.93;;;;;;;3.17;100.00;96294.09;5037500;28;20640;-72
2021/03/16 01:51:51;;;;;;;11.23;4.57;;;;;;;3.17;100.00;96296.69;5037943;28;20660;-72
2021/03/16 01:54:17;;;;;;;12.97;4.30;;;;;;;3.16;100.00;96295.06;5038172;28;20403;-72
2021/03/16 01:56:46;;;;;;;16.83;5.63;;;;;;;3.10;100.00;96300.78;5037474;28;20291;-72
2021/03/16 01:59:16;;;;;;;13.97;6.00;;;;;;;3.06;100.00;96302.81;5037413;28;20219;-72
2021/03/16 02:01:43;;;;;;;9.73;5.00;;;;;;;3.09;100.00;96296.53;5037649;28;21438;-72
2021/03/16 02:04:09;;;;;;;15.10;4.80;;;;;;;3.06;100.00;96299.41;5038251;28;21138;-72
2021/03/16 02:06:43;;;;;;;14.70;5.03;;;;;;;3.07;100.00;96304.47;5037122;28;20209;-72
2021/03/16 02:09:15;;;;;;;14.17;4.93;;;;;;;3.06;100.00;96310.63;5037451;28;20801;-72
2021/03/16 02:11:48;;;;;;;10.67;4.10;;;;;;;3.04;100.00;96311.72;5036938;28;20661;-72
2021/03/16 02:14:20;;;;;;;14.70;4.67;;;;;;;2.97;100.00;96308.00;5037738;28;20233;-72
2021/03/16 02:16:54;;;;;;;8.37;3.73;;;;;;;2.99;100.00;96306.06;5036495;28;20358;-72
2021/03/16 02:19:38;;;;;;;12.90;5.07;;;;;;;3.01;100.00;96314.59;5037221;28;20679;-72
2021/03/16 02:22:05;;;;;;;13.37;4.47;;;;;;;3.00;100.00;96318.13;5037650;28;20232;-72
2021/03/16 02:24:41;;;;;;;14.27;4.30;;;;;;;2.95;100.00;96315.09;5037610;28;20283;-72
2021/03/16 02:27:10;;;;;;;14.27;4.90;;;;;;;2.98;100.00;96312.25;5037057;28;20213;-72
2021/03/16 02:29:42;;;;;;;19.43;5.20;;;;;;;3.01;100.00;96313.78;5036848;28;20232;-72
2021/03/16 02:32:10;;;;;;;16.30;5.10;;;;;;;3.00;100.00;96319.94;5036914;28;20216;-72
2021/03/16 02:34:39;;;;;;;15.07;4.53;;;;;;;2.99;100.00;96324.28;5037661;28;20288;-72
2021/03/16 02:37:07;;;;;;;11.93;4.53;;;;;;;2.96;100.00;96313.34;5036763;28;20278;-72
2021/03/16 02:39:34;;;;;;;9.00;3.00;;;;;;;2.98;100.00;96322.66;5037041;28;20667;-72
2021/03/16 02:42:04;;;;;;;8.77;3.50;;;;;;;2.97;100.00;96318.41;5037577;28;20201;-72
2021/03/16 02:44:30;;;;;;;13.53;4.40;;;;;;;2.97;100.00;96326.22;5037771;28;20239;-72
2021/03/16 02:46:57;;;;;;;16.13;4.57;;;;;;;2.97;100.00;96328.00;5036134;28;20201;-72
2021/03/16 02:49:24;;;;;;;9.97;4.03;;;;;;;2.95;100.00;96329.91;5037197;28;20209;-72
2021/03/16 02:51:52;;;;;;;13.67;3.80;;;;;;;2.95;100.00;96328.09;5037251;28;20207;-72
2021/03/16 02:54:19;;;;;;;13.00;4.47;;;;;;;2.97;100.00;96328.81;5036913;28;20228;-72
2021/03/16 02:56:48;;;;;;;7.73;2.57;;;;;;;2.96;100.00;96328.97;5035664;28;20252;-72
2021/03/16 02:59:15;;;;;;;13.20;4.30;;;;;;;2.95;100.00;96332.50;5036669;28;20216;-72
2021/03/16 03:01:43;;;;;;;12.13;3.80;;;;;;;2.98;100.00;96334.84;5036117;28;20205;-72
2021/03/16 03:04:11;;;;;;;14.30;4.33;;;;;;;2.98;100.00;96335.69;5036695;28;20241;-72
2021/03/16 03:06:40;;;;;;;14.80;3.87;;;;;;;2.96;100.00;96337.56;5035885;28;20208;-72
2021/03/16 03:09:06;;;;;;;16.30;3.80;;;;;;;2.96;100.00;96345.38;5036737;28;20243;-72
2021/03/16 03:11:33;;;;;;;10.13;3.43;;;;;;;2.97;100.00;96351.44;5036374;28;21056;-72
2021/03/16 03:14:00;;;;;;;16.67;5.67;;;;;;;2.99;100.00;96346.91;5036479;28;20225;-72
2021/03/16 03:16:27;;;;;;;12.83;3.80;;;;;;;2.97;100.00;96349.63;5036036;28;20205;-73
2021/03/16 03:18:53;;;;;;;10.07;3.00;;;;;;;3.05;100.00;96357.63;5037185;28;20557;-72
2021/03/16 03:21:27;;;;;;;10.43;3.90;;;;;;;2.99;100.00;96363.34;5036219;28;20227;-72
2021/03/16 03:24:05;;;;;;;15.77;3.57;;;;;;;3.00;100.00;96354.56;5036366;28;20833;-72
2021/03/16 03:26:36;;;;;;;17.30;6.63;;;;;;;2.98;100.00;96374.72;5035621;28;20215;-72
2021/03/16 03:29:07;;;;;;;13.57;4.67;;;;;;;2.88;100.00;96384.25;5036316;28;20212;-72
2021/03/16 03:31:34;;;;;;;7.97;4.10;;;;;;;2.83;100.00;96381.19;5036455;28;20232;-72
2021/03/16 03:34:02;;;;;;;13.03;4.00;;;;;;;2.82;100.00;96381.31;5036155;28;20303;-72
2021/03/16 03:36:30;;;;;;;9.90;4.60;;;;;;;2.78;100.00;96385.13;5035175;28;20202;-72
2021/03/16 03:38:57;;;;;;;14.93;4.47;;;;;;;2.75;100.00;96386.22;5036507;28;20204;-72
2021/03/16 03:41:26;;;;;;;14.03;4.33;;;;;;;2.74;100.00;96383.75;5035156;28;20208;-72
2021/03/16 03:43:52;;;;;;;17.63;3.80;;;;;;;2.76;100.00;96385.25;5036129;28;20228;-72
2021/03/16 03:46:20;;;;;;;20.87;4.47;;;;;;;2.69;100.00;96391.91;5035417;28;20201;-72
2021/03/16 03:48:47;;;;;;;9.13;3.63;;;;;;;2.64;100.00;96394.06;5036789;28;20208;-72
2021/03/16 03:51:14;;;;;;;9.33;3.97;;;;;;;2.65;100.00;96400.09;5036738;28;20221;-72
2021/03/16 03:53:41;;;;;;;15.63;5.30;;;;;;;2.64;100.00;96403.66;5035713;28;20252;-72
2021/03/16 03:56:08;;;;;;;16.40;4.70;;;;;;;2.62;100.00;96403.78;5035156;28;20209;-72
2021/03/16 03:58:38;;;;;;;12.93;4.07;;;;;;;2.62;100.00;96403.78;5036888;28;20848;-72
2021/03/16 04:01:06;;;;;;;13.60;4.87;;;;;;;2.65;100.00;96400.91;5036359;28;20232;-72
2021/03/16 04:03:33;;;;;;;11.50;4.87;;;;;;;2.64;100.00;96401.84;5036043;28;20205;-72
2021/03/16 04:06:00;;;;;;;10.27;3.90;;;;;;;2.68;100.00;96400.66;5035494;28;20209;-72
2021/03/16 04:08:27;;;;;;;14.90;4.40;;;;;;;2.70;100.00;96406.56;5036231;28;20726;-72
2021/03/16 04:10:54;;;;;;;16.00;4.90;;;;;;;2.67;100.00;96404.22;5036286;28;20232;-72
2021/03/16 04:13:21;;;;;;;14.67;4.23;;;;;;;2.69;100.00;96412.72;5039379;28;20209;-72
2021/03/16 04:15:48;;;;;;;8.67;3.30;;;;;;;2.74;100.00;96410.56;5039037;28;20233;-72
2021/03/16 04:18:14;;;;;;;8.10;4.00;;;;;;;2.76;100.00;96406.06;5040150;28;20208;-72
2021/03/16 04:20:40;;;;;;;9.43;3.50;;;;;;;2.78;100.00;96408.53;5039975;28;20707;-72
2021/03/16 04:23:06;;;;;;;11.17;4.10;;;;;;;2.83;100.00;96411.59;5040087;28;20207;-72
2021/03/16 04:25:32;;;;;;;9.73;4.33;;;;;;;2.76;100.00;96410.44;5038765;28;20225;-72
2021/03/16 04:27:59;;;;;;;12.70;3.63;;;;;;;2.77;100.00;96415.50;5039510;28;20208;-72
2021/03/16 04:30:25;;;;;;;8.67;4.30;;;;;;;2.80;100.00;96420.47;5039713;28;20229;-72
2021/03/16 04:32:51;;;;;;;12.07;4.10;;;;;;;2.77;100.00;96420.72;5039988;28;20201;-72
2021/03/16 04:35:17;;;;;;;15.47;4.40;;;;;;;2.75;100.00;96422.63;5038899;28;20233;-72
2021/03/16 04:37:43;;;;;;;11.93;3.40;;;;;;;2.77;100.00;96430.31;5039637;28;20208;-72
2021/03/16 04:40:10;;;;;;;10.57;3.97;;;;;;;2.73;100.00;96440.13;5039794;28;20197;-72
2021/03/16 04:42:36;;;;;;;14.00;4.37;;;;;;;2.54;100.00;96439.97;5039413;28;20251;-72
2021/03/16 04:45:04;;;;;;;13.33;4.30;;;;;;;2.40;100.00;96443.81;5038888;28;20233;-72
2021/03/16 04:47:30;;;;;;;11.23;3.93;;;;;;;2.38;100.00;96437.91;5039397;28;20210;-72
2021/03/16 04:49:56;;;;;;;12.33;4.33;;;;;;;2.33;100.00;96438.28;5039354;28;20228;-72
2021/03/16 04:52:22;;;;;;;5.87;2.43;;;;;;;2.37;100.00;96436.25;5039278;28;20209;-72
2021/03/16 04:54:49;;;;;;;15.93;4.77;;;;;;;2.41;100.00;96439.31;5039630;28;20232;-73
2021/03/16 04:57:15;;;;;;;15.27;5.10;;;;;;;2.40;100.00;96440.25;5038092;28;20204;-73
2021/03/16 04:59:41;;;;;;;11.00;4.40;;;;;;;2.44;100.00;96446.88;5038806;28;20370;-73
2021/03/16 05:02:08;;;;;;;13.63;4.77;;;;;;;2.52;100.00;96447.09;5040327;28;20220;-73
2021/03/16 05:04:34;;;;;;;12.80;4.67;;;;;;;2.53;100.00;96459.16;5038639;28;20225;-73
2021/03/16 05:07:00;;;;;;;12.93;5.23;;;;;;;2.51;100.00;96476.63;5038232;28;20219;-73
2021/03/16 05:09:26;;;;;;;13.70;4.97;;;;;;;2.49;100.00;96470.72;5039261;28;20213;-73
2021/03/16 05:11:52;;;;;;;8.10;3.23;;;;;;;2.41;100.00;96470.50;5038974;28;21060;-73
2021/03/16 05:14:18;;;;;;;9.90;2.90;;;;;;;2.40;100.00;96472.41;5038887;28;20260;-73
2021/03/16 05:16:44;;;;;;;8.40;3.30;;;;;;;2.36;100.00;96482.22;5038083;28;20216;-73
2021/03/16 05:19:10;;;;;;;11.00;5.23;;;;;;;2.32;100.00;96474.78;5038723;28;20205;-73
2021/03/16 05:21:36;;;;;;;12.70;5.53;;;;;;;2.32;100.00;96485.19;5038819;28;20208;-73
2021/03/16 05:24:03;;;;;;;13.33;5.20;;;;;;;2.22;100.00;96482.50;5038037;28;20227;-72
2021/03/16 05:26:29;;;;;;;12.90;5.10;;;;;;;2.19;100.00;96481.91;5037950;28;20740;-73
2021/03/16 05:28:55;;;;;;;14.13;4.80;;;;;;;2.16;100.00;96487.34;5038497;28;20275;-73
2021/03/16 05:31:21;;;;;;;13.50;4.73;;;;;;;2.11;100.00;96479.91;5038767;28;20264;-72
2021/03/16 05:33:47;;;;;;;11.80;5.50;;;;;;;2.08;100.00;96482.75;5038764;28;20212;-73
2021/03/16 05:36:13;;;;;;;8.07;3.00;;;;;;;2.11;100.00;96486.88;5037796;28;21033;-73
2021/03/16 05:38:39;;;;;;;14.77;4.87;;;;;;;2.12;100.00;96483.34;5038616;28;20258;-72
2021/03/16 05:41:07;;;;;;;10.97;4.60;;;;;;;2.14;100.00;96491.81;5038625;28;20197;-73
2021/03/16 05:43:34;;;;;;;13.13;4.63;;;;;;;2.17;100.00;96494.22;5038308;28;20205;-73
2021/03/16 05:46:00;;;;;;;12.60;4.70;;;;;;;2.14;100.00;96492.69;5037780;28;20259;-73
2021/03/16 05:48:29;;;;;;;15.40;4.63;;;;;;;2.24;100.00;96492.75;5038477;28;20732;-73
2021/03/16 05:50:55;;;;;;;17.03;4.93;;;;;;;2.22;100.00;96500.69;5038392;28;20239;-73
2021/03/16 05:53:22;;;;;;;11.63;4.07;;;;;;;2.21;100.00;96488.63;5038162;28;20209;-73
2021/03/16 05:55:48;;;;;;;8.30;4.20;;;;;;;2.24;100.00;96493.63;5037201;28;20315;-72
2021/03/16 05:58:14;;;;;;;10.00;5.20;;;;;;;2.25;100.00;96497.03;5038660;28;20209;-73
2021/03/16 06:00:40;;;;;;;12.47;3.93;;;;;;;2.30;100.00;96497.50;5037863;28;20204;-72
2021/03/16 06:03:06;;;;;;;10.77;4.67;;;;;;;2.35;100.00;96509.16;5038433;28;20224;-73
2021/03/16 06:05:32;;;;;;;12.60;4.63;;;;;;;2.36;100.00;96502.22;5037446;28;20658;-73
2021/03/16 06:07:58;;;;;;;8.20;3.10;;;;;;;2.39;100.00;96507.97;5037185;28;20211;-73
2021/03/16 06:10:25;;;;;;;13.27;4.03;;;;;;;2.41;100.00;96508.69;5037886;28;20224;-72
2021/03/16 06:12:51;;;;;;;9.63;4.70;;;;;;;2.47;100.00;96516.03;5038836;28;20213;-72
2021/03/16 06:15:19;;;;;;;9.07;4.17;;;;;;;2.46;100.00;96522.97;5036753;28;20232;-72
2021/03/16 06:17:47;;;;;;;10.47;4.23;;;;;;;2.49;100.00;96529.72;5037289;28;20209;-72
2021/03/16 06:20:26;;;;;;;11.73;4.47;;;;;;;2.51;100.00;96528.66;5038181;28;20208;-72
2021/03/16 06:23:02;;;;;;;12.73;4.23;;;;;;;2.55;100.00;96532.66;5037812;28;20205;-72
2021/03/16 06:25:31;;;;;;;8.87;3.60;;;;;;;2.59;100.00;96536.66;5036626;28;20225;-72
2021/03/16 06:28:02;;;;;;;15.57;4.50;;;;;;;2.65;100.00;96546.59;5036930;28;20220;-72
2021/03/16 06:30:28;;;;;;;13.63;3.77;;;;;;;2.62;100.00;96544.25;5037161;28;20871;-72
2021/03/16 06:32:55;;;;;;;13.67;4.60;;;;;;;2.68;100.00;96550.72;5037443;28;20290;-72
2021/03/16 06:35:21;;;;;;;10.93;3.87;;;;;;;2.69;100.00;96550.59;5036338;28;20239;-72
2021/03/16 06:38:01;;;;;;;8.03;3.10;;;;;;;2.63;100.00;96561.47;5037352;28;21101;-72
2021/03/16 06:40:28;;;;;;;8.63;3.57;;;;;;;2.60;100.00;96559.13;5036906;28;20201;-72
2021/03/16 06:43:03;;;;;;;8.33;3.53;;;;;;;2.55;100.00;96558.66;5038346;28;20202;-72
2021/03/16 06:45:31;;;;;;;8.67;3.70;;;;;;;2.58;100.00;96561.03;5036051;28;20586;-72
2021/03/16 06:47:57;;;;;;;7.20;3.50;;;;;;;2.61;100.00;96571.19;5036410;28;20287;-72
2021/03/16 06:50:27;;;;;;;10.13;3.60;;;;;;;2.62;100.00;96574.63;5037852;28;20350;-72
2021/03/16 06:52:53;;;;;;;9.73;3.60;;;;;;;2.67;100.00;96577.69;5037994;28;20215;-72
2021/03/16 06:55:20;;;;;;;9.37;3.37;;;;;;;2.65;100.00;96582.19;5035909;28;20232;-72
2021/03/16 06:57:46;;;;;;;8.77;3.83;;;;;;;2.66;100.00;96583.81;5036577;28;20209;-72
2021/03/16 07:00:15;;;;;;;11.93;4.00;;;;;;;2.69;100.00;96575.78;5037436;28;20201;-72
2021/03/16 07:02:41;;;;;;;8.37;3.87;;;;;;;2.75;100.00;96585.69;5036977;28;20197;-72
2021/03/16 07:05:08;;;;;;;14.27;3.97;;;;;;;2.81;100.00;96588.63;5035940;28;20320;-72
2021/03/16 07:07:34;;;;;;;9.93;3.80;;;;;;;2.82;100.00;96577.28;5037299;28;20259;-72
2021/03/16 07:10:01;;;;;;;7.43;3.00;;;;;;;2.84;100.00;96591.00;5036647;28;20239;-72
2021/03/16 07:12:32;;;;;;;9.23;3.80;;;;;;;2.83;100.00;96591.97;5036454;28;20208;-72
2021/03/16 07:14:59;;;;;;;10.83;4.10;;;;;;;2.82;100.00;96605.91;5036551;28;20263;-72
2021/03/16 07:17:27;;;;;;;13.53;4.80;;;;;;;2.87;100.00;96608.16;5036358;28;20246;-72
2021/03/16 07:19:59;;;;;;;11.93;4.10;;;;;;;2.89;100.00;96616.66;5035549;28;20205;-72
2021/03/16 07:22:27;;;;;;;7.63;3.03;;;;;;;2.94;100.00;96614.53;5034849;28;20235;-72
2021/03/16 07:24:54;;;;;;;15.00;4.37;;;;;;;2.94;100.00;96623.19;5035606;28;20216;-72
2021/03/16 07:27:20;;;;;;;8.63;3.90;;;;;;;2.84;100.00;96624.84;5034725;28;20219;-72
2021/03/16 07:29:47;;;;;;;10.37;4.40;;;;;;;2.79;100.00;96631.34;5035998;28;20204;-72
2021/03/16 07:32:14;;;;;;;6.23;2.83;;;;;;;2.68;100.00;96637.38;5035494;28;20212;-72
2021/03/16 07:34:42;;;;;;;12.20;4.47;;;;;;;2.77;100.00;96643.66;5034524;28;20225;-72
2021/03/16 07:37:09;;;;;;;7.20;4.13;;;;;;;2.78;100.00;96646.13;5033794;28;20266;-72
2021/03/16 07:39:36;;;;;;;7.97;3.53;;;;;;;2.75;100.00;96648.16;5034587;28;20209;-72
2021/03/16 07:42:03;;;;;;;5.17;2.63;;;;;;;2.81;100.00;96653.69;5033560;28;20216;-72
2021/03/16 07:44:29;;;;;;;6.23;2.67;;;;;;;2.84;100.00;96653.47;5034775;28;20961;-72
2021/03/16 07:46:58;;;;;;;9.37;4.23;;;;;;;2.91;100.00;96651.22;5036855;28;20209;-72
2021/03/16 07:49:31;;;;;;;10.20;3.93;;;;;;;3.00;100.00;96659.09;5040893;28;20204;-72
2021/03/16 07:52:00;;;;;;;9.93;4.43;;;;;;;3.12;100.00;96671.19;5040041;28;20228;-72
2021/03/16 07:54:32;;;;;;;14.30;3.47;;;;;;;3.16;100.00;96677.78;5040887;28;20582;-72
2021/03/16 07:57:01;;;;;;;8.43;4.20;;;;;;;3.20;100.00;96671.38;5039991;28;20235;-73
2021/03/16 07:59:31;;;;;;;10.53;4.50;;;;;;;3.20;100.00;96674.81;5040641;28;20376;-71
2021/03/16 08:01:57;;;;;;;6.27;3.53;;;;;;;3.22;100.00;96674.69;5039660;28;20201;-73
2021/03/16 08:04:33;;;;;;;10.77;4.40;;;;;;;3.23;100.00;96676.34;5036011;28;20228;-72
2021/03/16 08:07:01;;;;;;;10.53;4.57;;;;;;;3.29;100.00;96673.25;5038072;28;20823;-72
2021/03/16 08:09:27;;;;;;;13.97;5.70;;;;;;;3.27;100.00;96673.38;5039538;28;20252;-72
2021/03/16 08:11:53;;;;;;;6.63;3.40;;;;;;;3.28;100.00;96676.81;5039818;28;20220;-72
2021/03/16 08:14:30;;;;;;;5.93;3.13;;;;;;;3.40;100.00;96675.81;5038920;28;20464;-72
2021/03/16 08:16:57;;;;;;;9.57;3.57;;;;;;;3.49;100.00;96672.47;5039691;28;20533;-72
2021/03/16 08:19:35;;;;;;;11.67;4.23;;;;;;;3.61;100.00;96681.91;5039087;28;20205;-72
2021/03/16 08:22:02;;;;;;;7.27;2.70;;;;;;;3.53;100.00;96681.72;5039750;28;20205;-72
2021/03/16 08:24:35;;;;;;;12.53;4.00;;;;;;;3.67;100.00;96685.66;5038668;28;20221;-72
2021/03/16 08:27:02;;;;;;;11.50;4.13;;;;;;;3.76;100.00;96684.09;5039087;28;20216;-72
2021/03/16 08:29:30;;;;;;;11.10;3.70;;;;;;;3.83;100.00;96691.28;5038700;28;20219;-72
2021/03/16 08:31:57;;;;;;;6.73;2.90;;;;;;;3.76;100.00;96690.13;5039253;28;20311;-72
2021/03/16 08:34:25;;;;;;;7.03;2.70;;;;;;;3.72;100.00;96688.72;5039048;28;20236;-72
2021/03/16 08:36:51;;;;;;;8.20;3.17;;;;;;;3.71;100.00;96697.50;5038829;28;20212;-72
2021/03/16 08:39:23;;;;;;;13.17;4.43;;;;;;;3.83;100.00;96691.28;5038564;28;20209;-72
2021/03/16 08:41:56;;;;;;;9.20;3.73;;;;;;;3.80;100.00;96695.91;5039340;28;20201;-72
2021/03/16 08:44:23;;;;;;;12.53;3.60;;;;;;;3.86;100.00;96701.47;5038691;28;20236;-72
2021/03/16 08:46:49;;;;;;;11.53;3.80;;;;;;;3.84;100.00;96689.50;5038459;28;20909;-72
2021/03/16 08:49:16;;;;;;;11.03;3.20;;;;;;;4.01;100.00;96704.56;5038862;28;20677;-72
2021/03/16 08:51:43;;;;;;;13.43;3.90;;;;;;;4.01;100.00;96702.81;5039124;28;20230;-72
2021/03/16 08:54:09;;;;;;;13.37;3.77;;;;;;;3.87;100.00;96712.69;5038091;28;20270;-72
2021/03/16 08:56:36;;;;;;;7.13;3.63;;;;;;;3.90;100.00;96708.06;5037852;28;20209;-72
2021/03/16 08:59:04;;;;;;;12.50;3.80;;;;;;;3.94;100.00;96706.88;5036225;28;20695;-72
2021/03/16 09:01:31;;;;;;;11.00;3.47;;;;;;;4.03;100.00;96706.09;5037812;28;20209;-73
2021/03/16 09:04:08;;;;;;;13.40;3.17;;;;;;;4.07;100.00;96707.50;5038181;28;20225;-73
2021/03/16 09:06:34;;;;;;;8.73;3.50;;;;;;;4.12;100.00;96710.56;5038311;28;20197;-73
2021/03/16 09:09:00;;;;;;;11.83;3.43;;;;;;;4.05;100.00;96708.59;5038206;28;20287;-72
2021/03/16 09:11:31;;;;;;;12.07;3.60;;;;;;;4.13;100.00;96714.84;5038398;28;20225;-73
2021/03/16 09:14:13;;;;;;;11.00;3.03;;;;;;;4.13;100.00;96714.03;5038601;28;20235;-73
2021/03/16 09:16:41;;;;;;;9.97;3.87;;;;;;;3.98;100.00;96721.31;5037792;28;20244;-73
2021/03/16 09:19:09;;;;;;;7.40;3.37;;;;;;;3.96;100.00;96723.22;5038219;28;20201;-73
2021/03/16 09:21:37;;;;;;;10.00;3.63;;;;;;;3.83;100.00;96732.16;5039320;28;20201;-72
2021/03/16 09:24:04;;;;;;;5.53;2.30;;;;;;;3.66;100.00;96736.13;5037764;28;20217;-72
2021/03/16 09:26:30;;;;;;;7.80;3.17;;;;;;;3.51;100.00;96739.13;5037500;28;20202;-72
2021/03/16 09:28:56;;;;;;;15.77;3.40;;;;;;;3.34;100.00;96738.81;5038345;28;20638;-72
2021/03/16 09:31:23;;;;;;;11.57;4.00;;;;;;;3.35;100.00;96737.88;5039182;28;20233;-73
2021/03/16 09:33:50;;;;;;;6.07;3.60;;;;;;;3.46;100.00;96738.66;5037364;28;20561;-73
2021/03/16 09:36:27;;;;;;;10.43;4.50;;;;;;;3.59;100.00;96738.50;5037448;28;20228;-73
2021/03/16 09:38:54;;;;;;;14.23;4.67;;;;;;;3.83;100.00;96747.78;5038195;28;20888;-73
2021/03/16 09:41:20;;;;;;;9.30;3.57;;;;;;;3.89;100.00;96732.47;5037343;28;20197;-73
2021/03/16 09:43:46;;;;;;;11.93;4.43;;;;;;;4.02;100.00;96732.31;5037425;28;20267;-72
2021/03/16 09:46:14;;;;;;;9.47;4.33;;;;;;;4.08;100.00;96735.25;5037710;28;20209;-72
2021/03/16 09:48:46;;;;;;;15.53;4.57;;;;;;;3.99;100.00;96733.38;5037778;28;20208;-72
2021/03/16 09:51:14;;;;;;;12.00;5.17;;;;;;;4.35;100.00;96728.59;5037448;28;20225;-72
2021/03/16 09:53:45;;;;;;;8.90;4.10;;;;;;;4.49;100.00;96730.88;5037930;28;20209;-72
2021/03/16 09:56:11;;;;;;;16.13;3.50;;;;;;;4.62;100.00;96725.44;5037118;28;20591;-72
2021/03/16 09:58:37;;;;;;;9.27;3.03;;;;;;;4.57;95.90;96719.78;5037538;28;20212;-73
2021/03/16 10:01:05;;;;;;;10.93;4.70;;;;;;;4.83;97.10;96727.88;5037791;28;20208;-72
2021/03/16 10:03:31;;;;;;;9.97;3.77;;;;;;;4.98;98.18;96720.53;5037418;28;20216;-73
2021/03/16 10:06:05;;;;;;;6.87;2.60;;;;;;;4.91;92.65;96720.25;5036564;28;20707;-73
2021/03/16 10:08:31;;;;;;;6.97;2.80;;;;;;;4.85;90.38;96731.19;5037453;28;20216;-72
2021/03/16 10:10:58;;;;;;;13.53;2.87;;;;;;;4.72;90.32;96728.94;5036880;28;20232;-72
2021/03/16 10:13:32;;;;;;;8.40;2.60;;;;;;;4.63;89.05;96734.94;5037619;28;20209;-72
2021/03/16 10:16:06;;;;;;;7.33;2.83;;;;;;;4.69;91.91;96735.22;5036461;28;20209;-72
2021/03/16 10:18:37;;;;;;;8.00;3.13;;;;;;;4.66;90.03;96732.91;5037503;28;20212;-72
2021/03/16 10:21:05;;;;;;;8.23;3.43;;;;;;;4.53;92.88;96724.44;5036753;28;20672;-72
2021/03/16 10:23:31;;;;;;;10.40;3.80;;;;;;;4.54;93.09;96740.91;5037508;28;20287;-72
2021/03/16 10:25:59;;;;;;;8.93;3.13;;;;;;;4.55;92.42;96737.34;5036398;28;20271;-73
2021/03/16 10:28:32;;;;;;;7.83;2.77;;;;;;;4.45;92.14;96726.84;5037337;28;20209;-72
2021/03/16 10:31:10;;;;;;;5.87;2.23;;;;;;;4.46;90.71;96730.31;5037308;28;20239;-73
2021/03/16 10:33:36;;;;;;;11.27;3.50;;;;;;;4.46;93.19;96712.84;5036999;28;20595;-72
2021/03/16 10:36:02;;;;;;;9.00;3.03;;;;;;;4.44;91.43;96729.59;5036191;28;20275;-72
2021/03/16 10:38:28;;;;;;;12.77;2.80;;;;;;;4.53;91.33;96731.44;5036573;28;20577;-72
2021/03/16 10:40:54;;;;;;;8.47;2.80;;;;;;;4.72;90.93;96729.75;5038068;28;21354;-72
2021/03/16 10:43:20;;;;;;;11.20;3.47;;;;;;;5.15;91.73;96731.16;5036343;28;20201;-72
2021/03/16 10:45:46;;;;;;;5.57;2.83;;;;;;;5.22;89.92;96729.69;5035331;28;20593;-72
2021/03/16 10:48:12;;;;;;;8.20;2.50;;;;;;;5.08;86.31;96724.84;5037614;28;20201;-73
2021/03/16 10:50:38;;;;;;;5.80;2.63;;;;;;;4.91;84.96;96725.47;5036876;28;20715;-73
2021/03/16 10:53:04;;;;;;;5.33;2.00;;;;;;;4.87;85.49;96731.91;5037673;28;20288;-73
2021/03/16 10:55:31;;;;;;;12.07;3.53;;;;;;;5.01;85.95;96715.84;5036086;28;20294;-73
2021/03/16 10:57:57;;;;;;;7.30;2.90;;;;;;;5.13;87.07;96725.28;5036180;28;21258;-73
2021/03/16 11:00:23;;;;;;;9.23;2.80;;;;;;;5.44;87.82;96724.25;5036715;28;20290;-73
2021/03/16 11:02:49;;;;;;;8.23;2.37;;;;;;;5.19;83.26;96735.16;5036002;28;20697;-73
2021/03/16 11:05:15;;;;;;;9.53;3.00;;;;;;;5.08;86.62;96731.84;5035729;28;20221;-73
2021/03/16 11:07:41;;;;;;;11.43;2.73;;;;;;;5.13;86.78;96737.47;5035952;28;20677;-73
2021/03/16 11:10:08;;;;;;;7.53;2.43;;;;;;;5.02;84.17;96743.63;5036661;28;20282;-73
2021/03/16 11:12:35;;;;;;;8.97;2.30;;;;;;;4.87;85.38;96746.72;5035623;28;21153;-73
2021/03/16 11:15:01;;;;;;;7.80;2.33;;;;;;;4.86;85.76;96738.09;5035838;28;20291;-73
2021/03/16 11:17:27;;;;;;;7.57;2.30;;;;;;;4.89;86.73;96740.41;5035852;28;20277;-73
2021/03/16 11:19:53;;;;;;;12.93;3.17;;;;;;;5.00;90.03;96742.13;5036378;28;20232;-72
2021/03/16 11:22:19;;;;;;;6.17;2.60;;;;;;;4.82;87.59;96747.13;5035531;28;20201;-72
2021/03/16 11:24:47;;;;;;;10.73;2.97;;;;;;;4.75;87.02;96750.38;5035750;28;20606;-72
2021/03/16 11:27:13;;;;;;;9.33;2.90;;;;;;;4.75;87.39;96741.72;5035272;28;20573;-72
2021/03/16 11:29:40;;;;;;;8.40;2.87;;;;;;;4.76;88.64;96752.06;5036492;28;20212;-72
2021/03/16 11:32:06;;;;;;;10.57;3.57;;;;;;;4.68;88.52;96746.63;5035906;28;20598;-72